Terminal Aerodrome Forecast
Issued by NWS

Home | Current Version | Previous Version | Text Only | Print | Product List | Glossary On
Versions: 1 2 3 4 5 6 7 8 9 10 11 12 13 14 15 16 17 18 19 20 21 22 23
188
FTUS43 KIND 301720
TAFLAF
TAF
KLAF 301720Z 3018/3118 00000KT P6SM SCT035
     FM302000 VRB03KT P6SM VCTS SCT035CB
     FM310300 00000KT P6SM BKN120 PROB30 3103/3109 4SM -TSRA
      OVC040CB
     FM310900 00000KT 3SM BR BKN035 PROB30 3109/3112 1SM -TSRA BR
      OVC025CB
     FM311400 VRB03KT P6SM OVC030=

USA.gov is the U.S. government's official web portal to all federal, state and local government web resources and services.